Time;durP1;ratioP1;P1;durP2;ratioP2;P2;SDS_P1;SDS_P2;PMS_P1;PMS_P2;Temp;Humidity;BMP_temperature;BMP_pressure;BME280_temperature;BME280_humidity;BME280_pressure;Samples;Min_cycle;Max_cycle;Signal;HPM_P1;HPM_P2
2023/03/11 00:00:15;;;;;;;6.25;1.90;;;6.40;67.50;;;;;;5085425;28;20230;-65
2023/03/11 00:02:48;;;;;;;4.05;2.20;;;6.30;67.30;;;;;;5080437;28;20217;-64
2023/03/11 00:05:24;;;;;;;4.65;2.10;;;6.30;67.40;;;;;;5087170;28;20708;-64
2023/03/11 00:07:54;;;;;;;4.45;1.63;;;6.30;67.40;;;;;;5087067;28;20236;-64
2023/03/11 00:10:37;;;;;;;3.70;1.83;;;6.20;67.40;;;;;;5088753;28;20632;-64
2023/03/11 00:13:12;;;;;;;4.10;1.90;;;6.30;67.40;;;;;;5090910;28;20209;-64
2023/03/11 00:15:42;;;;;;;3.45;1.65;;;6.30;67.20;;;;;;5092322;28;20227;-64
2023/03/11 00:18:10;;;;;;;3.85;1.75;;;6.20;67.20;;;;;;5093108;28;20220;-64
2023/03/11 00:20:46;;;;;;;3.30;1.48;;;6.20;67.50;;;;;;5090910;28;20204;-64
2023/03/11 00:23:25;;;;;;;3.63;1.80;;;6.20;67.30;;;;;;5090225;28;20211;-64
2023/03/11 00:25:55;;;;;;;4.78;1.70;;;6.20;67.30;;;;;;5090132;28;20233;-64
2023/03/11 00:28:29;;;;;;;3.88;1.90;;;6.20;67.30;;;;;;5090589;28;20196;-63
2023/03/11 00:31:04;;;;;;;4.80;2.05;;;6.10;67.30;;;;;;5069803;28;20230;-64
2023/03/11 00:33:40;;;;;;;6.45;2.00;;;6.10;67.60;;;;;;5071318;28;20226;-64
2023/03/11 00:36:33;;;;;;;4.07;1.80;;;6.10;67.60;;;;;;5065814;28;20205;-64
2023/03/11 00:39:10;;;;;;;3.85;1.80;;;6.00;67.80;;;;;;5069454;28;20207;-64
2023/03/11 00:41:40;;;;;;;3.83;1.83;;;6.10;67.90;;;;;;5067461;28;20232;-64
2023/03/11 00:44:14;;;;;;;3.70;1.95;;;6.10;68.00;;;;;;5067912;28;20205;-64
2023/03/11 00:46:45;;;;;;;3.95;1.83;;;6.10;68.00;;;;;;5069876;28;20217;-64
2023/03/11 00:49:21;;;;;;;3.70;1.90;;;6.10;68.00;;;;;;5071713;28;20267;-64
2023/03/11 00:51:58;;;;;;;4.00;2.25;;;6.10;67.90;;;;;;5073830;28;20617;-63
2023/03/11 00:54:28;;;;;;;4.20;2.00;;;6.10;68.00;;;;;;5075880;28;20282;-64
2023/03/11 00:57:00;;;;;;;3.78;2.10;;;6.10;68.00;;;;;;5070569;28;20207;-64
2023/03/11 00:59:34;;;;;;;3.70;1.77;;;6.10;67.90;;;;;;5079148;28;20239;-64
2023/03/11 01:02:12;;;;;;;3.95;2.03;;;6.10;67.90;;;;;;5066862;28;20219;-64
2023/03/11 01:04:45;;;;;;;3.78;2.20;;;6.00;68.10;;;;;;5067199;28;20198;-64
2023/03/11 01:07:26;;;;;;;4.00;1.98;;;6.00;68.20;;;;;;5069931;28;20229;-64
2023/03/11 01:10:03;;;;;;;3.97;2.00;;;6.00;68.30;;;;;;5062882;28;20199;-64
2023/03/11 01:12:38;;;;;;;3.65;2.05;;;6.00;68.10;;;;;;5064612;28;20707;-64
2023/03/11 01:15:18;;;;;;;4.57;1.90;;;5.90;68.20;;;;;;5067876;28;20250;-64
2023/03/11 01:20:38;;;;;;;4.45;2.10;;;5.90;68.50;;;;;;5070288;28;20212;-64
2023/03/11 01:23:15;;;;;;;3.72;2.00;;;5.90;68.60;;;;;;5067023;28;20287;-63
2023/03/11 01:25:49;;;;;;;3.50;1.70;;;5.90;68.70;;;;;;5065035;28;20258;-64
2023/03/11 01:28:21;;;;;;;4.40;2.25;;;5.90;68.70;;;;;;5068885;28;20205;-64
2023/03/11 01:31:08;;;;;;;3.83;2.00;;;5.80;68.60;;;;;;5067917;28;20244;-64
2023/03/11 01:33:40;;;;;;;5.15;2.03;;;5.90;68.60;;;;;;5065870;28;20216;-64
2023/03/11 01:36:13;;;;;;;4.20;2.10;;;5.90;68.60;;;;;;5068185;28;20695;-64
2023/03/11 01:39:16;;;;;;;4.60;2.20;;;5.90;68.60;;;;;;5068593;28;20289;-64
2023/03/11 01:41:45;;;;;;;4.35;2.10;;;5.80;68.50;;;;;;5065043;28;20220;-64
2023/03/11 01:44:25;;;;;;;4.47;2.13;;;5.80;68.60;;;;;;5070138;28;20469;-64
2023/03/11 01:47:33;;;;;;;4.10;1.80;;;5.80;68.70;;;;;;5069070;28;20222;-63
2023/03/11 01:50:12;;;;;;;6.13;1.75;;;5.80;68.60;;;;;;5069563;28;20205;-64
2023/03/11 01:52:43;;;;;;;4.50;2.25;;;5.80;68.70;;;;;;5062612;28;20679;-64
2023/03/11 01:55:25;;;;;;;4.85;2.00;;;5.90;68.60;;;;;;5069019;28;20227;-64
2023/03/11 01:57:57;;;;;;;5.80;1.92;;;5.90;68.40;;;;;;5070156;28;20207;-64
2023/03/11 02:00:36;;;;;;;4.28;2.28;;;5.90;68.40;;;;;;5065654;28;20644;-64
2023/03/11 02:03:14;;;;;;;5.07;1.60;;;5.80;68.40;;;;;;5060532;28;20197;-64
2023/03/11 02:05:53;;;;;;;4.97;2.10;;;5.80;68.40;;;;;;5066793;28;20318;-64
2023/03/11 02:08:33;;;;;;;4.43;1.90;;;5.80;68.30;;;;;;5064558;28;20675;-64
2023/03/11 02:11:15;;;;;;;5.35;1.73;;;5.80;68.30;;;;;;5069083;28;20212;-64
2023/03/11 02:13:47;;;;;;;5.05;1.70;;;5.80;67.90;;;;;;5067178;28;20227;-64
2023/03/11 02:16:21;;;;;;;6.72;2.28;;;5.70;67.90;;;;;;5068102;28;20207;-64
2023/03/11 02:18:57;;;;;;;3.70;1.50;;;5.70;68.10;;;;;;5066485;28;20207;-64
2023/03/11 02:21:33;;;;;;;4.40;1.60;;;5.70;68.10;;;;;;5064871;28;20713;-64
2023/03/11 02:24:16;;;;;;;3.92;1.50;;;5.70;68.20;;;;;;5066238;28;20636;-64
2023/03/11 02:27:07;;;;;;;4.03;1.50;;;5.70;67.90;;;;;;5061162;28;20307;-64
2023/03/11 02:29:37;;;;;;;4.60;1.67;;;5.60;67.80;;;;;;5067524;28;20200;-63
2023/03/11 02:32:09;;;;;;;5.28;1.55;;;5.60;68.00;;;;;;5066297;28;20238;-64
2023/03/11 02:34:45;;;;;;;5.30;1.83;;;5.60;68.10;;;;;;5082567;28;20241;-64
2023/03/11 02:37:18;;;;;;;7.50;1.50;;;5.70;67.90;;;;;;5068998;28;20214;-64
2023/03/11 02:40:23;;;;;;;5.60;1.90;;;5.70;68.00;;;;;;5068591;28;20217;-64
2023/03/11 02:43:04;;;;;;;4.40;1.48;;;5.70;67.60;;;;;;5065887;28;20207;-64
2023/03/11 02:45:39;;;;;;;4.10;1.60;;;5.50;67.60;;;;;;5062864;28;20233;-64
2023/03/11 02:48:15;;;;;;;5.45;2.42;;;5.50;67.60;;;;;;5061956;28;20283;-64
2023/03/11 02:50:48;;;;;;;4.30;1.60;;;5.50;67.80;;;;;;5062532;28;20204;-64
2023/03/11 02:53:27;;;;;;;5.65;2.10;;;5.50;67.90;;;;;;5065871;28;20265;-64
2023/03/11 02:56:09;;;;;;;3.53;1.77;;;5.50;67.80;;;;;;5066809;28;20231;-64
2023/03/11 02:58:48;;;;;;;3.78;1.65;;;5.60;67.80;;;;;;5067690;28;20804;-64
2023/03/11 03:01:20;;;;;;;3.90;1.40;;;5.60;67.80;;;;;;5063715;28;20335;-64
2023/03/11 03:03:56;;;;;;;3.33;1.60;;;5.60;67.70;;;;;;5063891;28;20207;-64
2023/03/11 03:06:32;;;;;;;7.20;1.95;;;5.50;67.50;;;;;;5065270;28;20561;-64
2023/03/11 03:09:03;;;;;;;4.70;1.67;;;5.50;67.50;;;;;;5064672;28;20210;-64
2023/03/11 03:11:40;;;;;;;4.70;2.13;;;5.50;67.70;;;;;;5059455;28;20216;-64
2023/03/11 03:14:27;;;;;;;5.57;2.15;;;5.50;67.60;;;;;;5064033;28;20221;-64
2023/03/11 03:17:09;;;;;;;4.13;1.80;;;5.50;67.60;;;;;;5065766;28;20196;-64
2023/03/11 03:19:42;;;;;;;5.38;1.90;;;5.50;67.60;;;;;;5069604;28;20229;-64
2023/03/11 03:22:24;;;;;;;5.00;1.95;;;5.50;67.60;;;;;;5064458;28;20195;-64
2023/03/11 03:25:00;;;;;;;4.72;1.75;;;5.50;67.50;;;;;;5066946;28;20254;-64
2023/03/11 03:27:33;;;;;;;5.65;1.90;;;5.40;67.50;;;;;;5067880;28;20257;-64
2023/03/11 03:30:15;;;;;;;3.60;1.70;;;5.40;67.60;;;;;;5064906;28;20228;-65
2023/03/11 03:32:50;;;;;;;8.27;1.95;;;5.40;67.60;;;;;;5067047;28;20200;-65
2023/03/11 03:35:23;;;;;;;5.93;2.08;;;5.40;67.60;;;;;;5066553;28;20227;-64
2023/03/11 03:38:20;;;;;;;4.85;2.25;;;5.40;67.70;;;;;;5067128;28;20326;-63
2023/03/11 03:40:54;;;;;;;7.50;2.63;;;5.40;67.60;;;;;;5068067;28;20207;-64
2023/03/11 03:43:29;;;;;;;4.40;1.75;;;5.40;67.70;;;;;;5064010;28;20232;-64
2023/03/11 03:47:02;;;;;;;4.30;1.92;;;5.40;67.80;;;;;;5068189;28;20536;-64
2023/03/11 03:49:41;;;;;;;3.70;2.05;;;5.50;67.70;;;;;;5066654;28;20218;-63
2023/03/11 03:52:14;;;;;;;4.07;1.92;;;5.50;67.70;;;;;;5063596;28;20196;-64
2023/03/11 03:54:48;;;;;;;5.35;2.00;;;5.50;67.70;;;;;;5067269;28;20256;-64
2023/03/11 03:57:35;;;;;;;6.22;2.08;;;5.50;67.80;;;;;;5063939;28;20232;-64
2023/03/11 04:00:18;;;;;;;5.95;1.95;;;5.50;67.50;;;;;;5064318;28;20660;-65
2023/03/11 04:02:59;;;;;;;4.88;2.00;;;5.40;67.60;;;;;;5066365;28;20227;-64
2023/03/11 04:05:42;;;;;;;5.35;2.17;;;5.30;67.60;;;;;;5065870;28;20219;-64
2023/03/11 04:08:14;;;;;;;4.75;2.22;;;5.30;67.70;;;;;;5063526;28;20210;-64
2023/03/11 04:10:46;;;;;;;4.88;2.35;;;5.30;67.80;;;;;;5061853;28;20345;-64
2023/03/11 04:13:19;;;;;;;7.22;2.70;;;5.40;67.80;;;;;;5078264;28;20199;-64
2023/03/11 04:15:53;;;;;;;4.05;2.10;;;5.40;67.80;;;;;;5065075;28;20216;-64
2023/03/11 04:18:32;;;;;;;10.02;3.08;;;5.30;67.50;;;;;;5063608;28;20199;-64
2023/03/11 04:21:21;;;;;;;5.68;2.13;;;5.30;67.70;;;;;;5060110;28;20287;-63
2023/03/11 04:23:58;;;;;;;6.20;2.42;;;5.30;67.80;;;;;;5061937;28;20511;-65
2023/03/11 04:26:37;;;;;;;6.28;2.50;;;5.20;67.80;;;;;;5063474;28;20204;-64
2023/03/11 04:29:26;;;;;;;6.72;2.58;;;5.20;67.90;;;;;;5065290;28;20220;-64
2023/03/11 04:32:02;;;;;;;12.00;2.65;;;5.30;68.00;;;;;;5062928;28;20235;-64
2023/03/11 04:34:34;;;;;;;5.10;2.50;;;5.30;68.00;;;;;;5059009;28;20201;-64
2023/03/11 04:37:09;;;;;;;6.95;2.10;;;5.30;68.00;;;;;;5063120;28;20228;-64
2023/03/11 04:39:40;;;;;;;7.72;2.35;;;5.40;68.00;;;;;;5082875;28;20211;-64
2023/03/11 04:42:14;;;;;;;6.05;2.22;;;5.40;68.00;;;;;;5059953;28;20212;-64
2023/03/11 04:44:55;;;;;;;5.85;2.28;;;5.40;67.90;;;;;;5063209;28;20292;-64
2023/03/11 04:47:32;;;;;;;8.20;2.60;;;5.40;67.90;;;;;;5065164;28;20223;-64
2023/03/11 04:50:10;;;;;;;7.93;2.10;;;5.40;68.00;;;;;;5060986;28;20216;-64
2023/03/11 04:52:49;;;;;;;6.20;2.22;;;5.40;68.10;;;;;;5059803;28;20246;-64
2023/03/11 04:55:19;;;;;;;4.47;2.22;;;5.40;68.10;;;;;;5059627;28;20262;-64
2023/03/11 04:57:57;;;;;;;7.78;2.53;;;5.40;68.10;;;;;;5060192;28;20204;-64
2023/03/11 05:00:40;;;;;;;5.65;1.92;;;5.50;68.10;;;;;;5081595;28;20256;-64
2023/03/11 05:03:15;;;;;;;4.43;2.10;;;5.50;68.10;;;;;;5065731;28;20207;-64
2023/03/11 05:05:48;;;;;;;6.38;2.25;;;5.50;68.00;;;;;;5064942;28;20262;-64
2023/03/11 05:08:26;;;;;;;6.35;2.42;;;5.50;68.00;;;;;;5063931;28;20203;-64
2023/03/11 05:10:59;;;;;;;5.60;2.22;;;5.50;68.00;;;;;;5065099;28;20200;-64
2023/03/11 05:13:40;;;;;;;6.97;2.60;;;5.50;68.00;;;;;;5067919;28;20676;-64
2023/03/11 05:16:14;;;;;;;8.55;2.67;;;5.50;68.00;;;;;;5067530;28;20216;-64
2023/03/11 05:18:53;;;;;;;7.25;1.95;;;5.50;68.00;;;;;;5064919;28;20518;-64
2023/03/11 05:21:33;;;;;;;12.45;2.60;;;5.50;68.10;;;;;;5068086;28;20710;-64
2023/03/11 05:24:06;;;;;;;6.82;2.05;;;5.50;68.00;;;;;;5063604;28;20280;-64
2023/03/11 05:26:44;;;;;;;6.20;2.28;;;5.50;68.00;;;;;;5066319;28;20217;-63
2023/03/11 05:29:25;;;;;;;6.80;2.40;;;5.50;68.10;;;;;;5059544;28;20655;-64
2023/03/11 05:32:05;;;;;;;9.00;2.97;;;5.50;68.20;;;;;;5060930;28;20226;-64
2023/03/11 05:34:43;;;;;;;6.47;2.15;;;5.50;68.20;;;;;;5067767;28;20227;-65
2023/03/11 05:37:18;;;;;;;7.65;2.60;;;5.50;68.20;;;;;;5067816;28;20632;-64
2023/03/11 05:40:08;;;;;;;6.35;2.85;;;5.50;68.10;;;;;;5084533;28;20290;-64
2023/03/11 05:42:44;;;;;;;5.82;2.80;;;5.60;68.20;;;;;;5065139;28;20295;-64
2023/03/11 05:45:22;;;;;;;6.45;2.70;;;5.60;68.20;;;;;;5072962;28;20549;-64
2023/03/11 05:47:53;;;;;;;5.72;2.30;;;5.60;68.20;;;;;;5068292;28;20290;-64
2023/03/11 05:50:30;;;;;;;9.48;2.70;;;5.60;68.20;;;;;;5067048;28;20314;-64
2023/03/11 05:53:05;;;;;;;8.60;2.55;;;5.60;68.20;;;;;;5067458;28;20211;-64
2023/03/11 05:55:45;;;;;;;8.05;2.70;;;5.60;68.20;;;;;;5081651;28;20409;-64
2023/03/11 05:58:14;;;;;;;4.22;2.15;;;5.60;68.20;;;;;;5068789;28;20203;-64
2023/03/11 06:00:53;;;;;;;10.05;2.92;;;5.60;68.20;;;;;;5081650;28;20239;-64
2023/03/11 06:03:28;;;;;;;7.30;2.38;;;5.50;68.20;;;;;;5066208;28;20618;-64
2023/03/11 06:06:00;;;;;;;8.35;3.08;;;5.60;68.20;;;;;;5065036;28;20197;-64
2023/03/11 06:08:36;;;;;;;7.65;2.95;;;5.60;68.30;;;;;;5068051;28;20213;-64
2023/03/11 06:11:11;;;;;;;5.25;2.70;;;5.60;68.30;;;;;;5074741;28;20203;-64
2023/03/11 06:13:43;;;;;;;5.25;2.95;;;5.60;68.20;;;;;;5065703;28;20219;-64
2023/03/11 06:16:15;;;;;;;6.85;2.92;;;5.60;68.20;;;;;;5066088;28;20216;-64
2023/03/11 06:18:56;;;;;;;7.72;2.80;;;5.50;68.20;;;;;;5068345;28;20537;-64
2023/03/11 06:21:32;;;;;;;4.72;2.60;;;5.50;68.20;;;;;;5063381;28;20200;-64
2023/03/11 06:24:04;;;;;;;7.10;2.90;;;5.50;68.20;;;;;;5070143;28;20207;-64
2023/03/11 06:26:34;;;;;;;6.05;2.78;;;5.50;68.20;;;;;;5070065;28;20290;-64
2023/03/11 06:29:25;;;;;;;7.05;3.00;;;5.50;68.20;;;;;;5066022;28;20214;-64
2023/03/11 06:32:00;;;;;;;6.43;3.30;;;5.40;68.30;;;;;;5066318;28;20238;-64
2023/03/11 06:34:38;;;;;;;8.13;2.95;;;5.40;68.30;;;;;;5065148;28;20218;-64
2023/03/11 06:37:10;;;;;;;10.63;3.45;;;5.40;68.30;;;;;;5068996;28;20224;-64
2023/03/11 06:39:50;;;;;;;10.10;2.78;;;5.50;68.40;;;;;;5082721;28;20212;-64
2023/03/11 06:42:31;;;;;;;5.25;2.90;;;5.50;68.50;;;;;;5063845;28;20203;-64
2023/03/11 06:45:02;;;;;;;5.78;2.80;;;5.50;68.50;;;;;;5073763;28;20342;-64
2023/03/11 06:47:36;;;;;;;5.70;2.78;;;5.60;68.50;;;;;;5063942;28;20233;-64
2023/03/11 06:50:09;;;;;;;7.82;3.40;;;5.50;68.40;;;;;;5064511;28;20692;-64
2023/03/11 06:52:49;;;;;;;7.80;3.10;;;5.60;68.50;;;;;;5066686;28;20295;-64
2023/03/11 06:55:20;;;;;;;8.35;3.17;;;5.60;68.60;;;;;;5059411;28;20203;-64
2023/03/11 06:57:57;;;;;;;10.77;3.53;;;5.70;68.60;;;;;;5066596;28;20219;-64
2023/03/11 07:00:30;;;;;;;9.00;3.25;;;5.70;68.60;;;;;;5067285;28;20246;-64
2023/03/11 07:03:04;;;;;;;7.13;3.15;;;5.70;68.60;;;;;;5064093;28;20200;-64
2023/03/11 07:05:54;;;;;;;8.65;3.67;;;5.80;68.60;;;;;;5067181;28;20197;-64
2023/03/11 07:08:26;;;;;;;10.07;4.32;;;5.80;68.50;;;;;;5064087;28;20266;-64
2023/03/11 07:11:04;;;;;;;6.45;3.38;;;5.80;68.50;;;;;;5062296;28;20229;-64
2023/03/11 07:13:47;;;;;;;11.35;3.40;;;5.90;68.50;;;;;;5063299;28;20240;-64
2023/03/11 07:16:24;;;;;;;5.80;2.90;;;5.90;68.50;;;;;;5062888;28;20203;-63
2023/03/11 07:19:10;;;;;;;6.30;3.42;;;5.90;68.50;;;;;;5067501;28;20200;-63
2023/03/11 07:21:43;;;;;;;8.68;3.88;;;6.00;68.50;;;;;;5064408;28;20204;-64
2023/03/11 07:24:22;;;;;;;10.13;3.42;;;6.00;68.50;;;;;;5065786;28;20657;-63
2023/03/11 07:26:52;;;;;;;8.80;4.00;;;6.00;68.20;;;;;;5066751;28;20209;-63
2023/03/11 07:29:26;;;;;;;10.95;3.60;;;6.00;68.30;;;;;;5066258;28;20211;-64
2023/03/11 07:32:02;;;;;;;6.03;3.05;;;6.00;68.30;;;;;;5066027;28;20232;-64
2023/03/11 07:34:34;;;;;;;7.50;3.72;;;6.00;68.30;;;;;;5065788;28;20223;-63
2023/03/11 07:37:06;;;;;;;8.13;3.55;;;6.00;68.20;;;;;;5067865;28;20220;-63
2023/03/11 07:39:42;;;;;;;6.00;2.80;;;6.00;68.10;;;;;;5067485;28;20201;-64
2023/03/11 07:42:12;;;;;;;6.80;3.05;;;5.90;68.10;;;;;;5066375;28;20219;-63
2023/03/11 07:44:45;;;;;;;13.02;3.63;;;5.90;68.10;;;;;;5063337;28;20219;-63
2023/03/11 07:47:17;;;;;;;8.90;3.30;;;5.80;67.80;;;;;;5065930;28;20202;-64
2023/03/11 07:49:55;;;;;;;6.70;3.05;;;5.50;67.70;;;;;;5064833;28;20220;-64
2023/03/11 07:52:29;;;;;;;7.20;3.75;;;5.50;68.00;;;;;;5063086;28;20627;-63
2023/03/11 07:55:01;;;;;;;14.35;3.95;;;5.50;68.30;;;;;;5062244;28;20218;-63
2023/03/11 07:57:32;;;;;;;5.95;3.00;;;5.50;68.40;;;;;;5063036;28;20281;-64
2023/03/11 08:00:05;;;;;;;6.85;3.45;;;5.50;68.10;;;;;;5064712;28;20603;-63
2023/03/11 08:02:48;;;;;;;7.22;3.03;;;5.50;68.30;;;;;;5064187;28;20856;-63
2023/03/11 08:05:25;;;;;;;4.63;2.63;;;5.60;68.40;;;;;;5063654;28;20249;-64
2023/03/11 08:07:57;;;;;;;6.68;3.22;;;5.60;68.30;;;;;;5065760;28;20249;-64
2023/03/11 08:10:38;;;;;;;4.40;2.63;;;5.60;68.30;;;;;;5063054;28;20309;-63
2023/03/11 08:13:12;;;;;;;6.00;2.78;;;5.70;68.40;;;;;;5064081;28;20600;-63
2023/03/11 08:15:44;;;;;;;6.90;2.97;;;5.70;68.20;;;;;;5062673;28;20265;-63
2023/03/11 08:18:27;;;;;;;11.80;3.50;;;5.70;68.30;;;;;;5066207;28;20211;-63
2023/03/11 08:21:01;;;;;;;7.53;3.40;;;5.70;68.20;;;;;;5065636;28;20195;-63
2023/03/11 08:23:33;;;;;;;7.78;3.10;;;5.80;68.20;;;;;;5077614;28;20203;-63
2023/03/11 08:26:08;;;;;;;6.80;3.30;;;5.90;68.30;;;;;;5064803;28;20206;-63
2023/03/11 08:28:48;;;;;;;7.40;3.15;;;5.90;68.20;;;;;;5063045;28;20211;-64
2023/03/11 08:31:22;;;;;;;8.70;2.90;;;6.00;68.10;;;;;;5065949;28;20312;-64
2023/03/11 08:33:54;;;;;;;7.10;3.25;;;6.00;68.10;;;;;;5062090;28;20301;-63
2023/03/11 08:36:33;;;;;;;8.02;3.25;;;6.00;68.00;;;;;;5068515;28;20217;-64
2023/03/11 08:39:09;;;;;;;10.80;3.67;;;6.00;67.90;;;;;;5068257;28;20224;-63
2023/03/11 08:41:41;;;;;;;7.50;3.33;;;6.00;68.00;;;;;;5067543;28;20212;-64
2023/03/11 08:44:20;;;;;;;7.68;2.92;;;6.00;68.00;;;;;;5068022;28;20210;-64
2023/03/11 08:46:57;;;;;;;8.73;3.40;;;6.00;67.90;;;;;;5069478;28;20201;-64
2023/03/11 08:49:26;;;;;;;6.60;2.97;;;6.00;68.00;;;;;;5069225;28;20213;-64
2023/03/11 08:51:55;;;;;;;8.02;3.60;;;6.00;68.00;;;;;;5069289;28;20799;-64
2023/03/11 08:54:27;;;;;;;9.80;2.85;;;6.00;67.90;;;;;;5068672;28;20295;-64
2023/03/11 08:57:10;;;;;;;7.85;2.83;;;6.00;68.00;;;;;;5069561;28;20669;-63
2023/03/11 08:59:50;;;;;;;6.75;2.65;;;6.10;68.00;;;;;;5067928;28;20694;-63
2023/03/11 09:02:27;;;;;;;9.45;2.95;;;6.10;68.00;;;;;;5069057;28;20236;-64
2023/03/11 09:04:56;;;;;;;8.45;3.38;;;6.10;68.00;;;;;;5064225;28;20202;-65
2023/03/11 09:07:30;;;;;;;8.90;3.42;;;6.10;68.00;;;;;;5068498;28;20294;-64
2023/03/11 09:10:03;;;;;;;6.85;3.10;;;6.20;68.10;;;;;;5069163;28;20701;-64
2023/03/11 09:12:35;;;;;;;8.32;2.83;;;6.20;68.00;;;;;;5068384;28;20212;-64
2023/03/11 09:15:15;;;;;;;8.73;2.65;;;6.20;67.70;;;;;;5070075;28;20221;-63
2023/03/11 09:17:53;;;;;;;8.82;2.70;;;6.20;68.00;;;;;;5068224;28;20740;-64
2023/03/11 09:20:26;;;;;;;7.20;3.00;;;6.30;68.00;;;;;;5070274;28;20208;-64
2023/03/11 09:22:55;;;;;;;7.75;2.83;;;6.30;67.90;;;;;;5066432;28;20214;-64
2023/03/11 09:25:31;;;;;;;4.25;2.60;;;6.40;68.00;;;;;;5069501;28;20305;-64
2023/03/11 09:28:02;;;;;;;8.73;3.47;;;6.50;68.00;;;;;;5067760;28;20293;-64
2023/03/11 09:30:34;;;;;;;5.68;2.38;;;6.50;67.90;;;;;;5068125;28;20242;-64
2023/03/11 09:33:15;;;;;;;11.40;2.80;;;6.60;67.60;;;;;;5068665;28;20203;-64
2023/03/11 09:35:49;;;;;;;6.93;3.08;;;6.60;67.40;;;;;;5067584;28;20206;-64
2023/03/11 09:38:19;;;;;;;10.10;2.58;;;6.60;67.40;;;;;;5067510;28;20276;-64
2023/03/11 09:41:02;;;;;;;4.80;2.30;;;6.60;67.20;;;;;;5069154;28;20313;-64
2023/03/11 09:43:56;;;;;;;6.38;2.70;;;6.60;67.00;;;;;;5065931;28;20212;-64
2023/03/11 09:47:02;;;;;;;6.45;2.53;;;6.60;67.00;;;;;;5066194;28;20545;-64
2023/03/11 09:49:55;;;;;;;5.90;2.25;;;6.50;66.90;;;;;;5065927;28;20235;-64
2023/03/11 09:52:35;;;;;;;5.60;2.33;;;6.60;67.00;;;;;;5073223;28;20210;-64
2023/03/11 09:55:23;;;;;;;8.10;2.80;;;6.60;66.90;;;;;;5069312;28;20246;-63
2023/03/11 09:58:01;;;;;;;8.27;3.55;;;6.60;66.90;;;;;;5065328;28;20228;-64
2023/03/11 10:00:30;;;;;;;7.30;3.03;;;6.60;67.00;;;;;;5068899;28;20236;-64
2023/03/11 10:03:01;;;;;;;6.03;2.35;;;6.60;67.10;;;;;;5065294;28;20228;-64
2023/03/11 10:05:40;;;;;;;7.35;2.88;;;6.60;67.10;;;;;;5065168;28;20218;-64
2023/03/11 10:08:46;;;;;;;7.80;2.20;;;6.70;67.10;;;;;;5069351;28;20189;-64
2023/03/11 10:11:44;;;;;;;6.60;2.90;;;6.70;67.00;;;;;;5067796;28;20564;-64
2023/03/11 10:14:55;;;;;;;6.85;2.90;;;6.70;66.90;;;;;;5067906;28;20642;-64
2023/03/11 10:17:57;;;;;;;6.10;3.22;;;6.70;66.90;;;;;;5068403;28;20217;-63
2023/03/11 10:20:33;;;;;;;7.85;2.50;;;6.60;66.80;;;;;;5066018;28;20548;-64
2023/03/11 10:23:21;;;;;;;5.68;2.60;;;6.60;66.30;;;;;;5067857;28;20200;-63
2023/03/11 10:26:04;;;;;;;10.45;2.80;;;6.50;66.30;;;;;;5068246;28;20214;-64
2023/03/11 10:28:42;;;;;;;10.77;3.05;;;6.50;66.40;;;;;;5067407;28;20209;-64
2023/03/11 10:31:25;;;;;;;5.25;2.78;;;6.40;66.60;;;;;;5066413;28;20227;-64
2023/03/11 10:34:01;;;;;;;5.65;3.08;;;6.50;66.60;;;;;;5067264;28;20799;-64
2023/03/11 10:36:43;;;;;;;6.45;2.90;;;6.50;66.70;;;;;;5065752;28;20645;-64
2023/03/11 10:39:17;;;;;;;8.45;2.47;;;6.50;66.50;;;;;;5068913;28;20279;-64
2023/03/11 10:41:57;;;;;;;7.85;3.35;;;6.50;66.50;;;;;;5066693;28;20187;-64
2023/03/11 10:44:33;;;;;;;6.28;3.10;;;6.60;66.50;;;;;;5067282;28;20207;-64
2023/03/11 10:47:02;;;;;;;7.22;3.00;;;6.60;66.30;;;;;;5064314;28;20718;-64
2023/03/11 10:49:36;;;;;;;5.38;2.90;;;6.60;66.30;;;;;;5067887;28;20206;-64
2023/03/11 10:52:15;;;;;;;8.23;2.85;;;6.50;66.20;;;;;;5066309;28;20205;-64
2023/03/11 10:54:59;;;;;;;8.80;3.17;;;6.60;66.20;;;;;;5066717;28;20525;-64
2023/03/11 10:57:35;;;;;;;6.03;3.00;;;6.60;66.20;;;;;;5066538;28;20200;-64
2023/03/11 11:00:11;;;;;;;7.18;3.40;;;6.50;65.70;;;;;;5066132;28;20209;-64
2023/03/11 11:02:53;;;;;;;6.68;2.80;;;6.50;66.00;;;;;;5068681;28;20311;-64
2023/03/11 11:05:31;;;;;;;6.93;3.08;;;6.40;65.10;;;;;;5065469;28;20607;-64
2023/03/11 11:08:06;;;;;;;7.78;3.45;;;6.30;65.00;;;;;;5066653;28;20231;-64
2023/03/11 11:10:58;;;;;;;8.30;3.20;;;6.20;65.50;;;;;;5066720;28;20695;-63
2023/03/11 11:13:34;;;;;;;6.72;3.33;;;6.30;65.60;;;;;;5066521;28;20266;-64
2023/03/11 11:16:19;;;;;;;8.18;3.50;;;6.30;65.60;;;;;;5065581;28;20209;-64
2023/03/11 11:18:57;;;;;;;7.25;2.80;;;6.30;65.60;;;;;;5067339;28;20238;-64
2023/03/11 11:21:34;;;;;;;6.25;3.40;;;6.40;65.60;;;;;;5067351;28;20205;-62
2023/03/11 11:24:20;;;;;;;7.07;3.05;;;6.30;65.20;;;;;;5065838;28;20196;-62
2023/03/11 11:27:17;;;;;;;7.88;2.90;;;6.30;65.10;;;;;;5067740;28;20209;-62
2023/03/11 11:30:24;;;;;;;8.25;3.45;;;6.20;64.90;;;;;;5067083;28;20200;-63
2023/03/11 11:33:26;;;;;;;9.23;3.75;;;6.20;64.80;;;;;;5067801;28;20224;-61
2023/03/11 11:36:02;;;;;;;10.40;3.40;;;6.10;65.20;;;;;;5065153;28;20230;-62
2023/03/11 11:38:35;;;;;;;9.40;4.30;;;6.10;65.20;;;;;;5067173;28;20242;-62
2023/03/11 11:41:20;;;;;;;11.15;4.07;;;6.10;64.90;;;;;;5066921;28;20304;-62
2023/03/11 11:43:58;;;;;;;5.80;2.65;;;6.10;65.00;;;;;;5067072;28;20294;-62
2023/03/11 11:46:35;;;;;;;6.68;3.80;;;6.10;64.90;;;;;;5067349;28;20226;-62
2023/03/11 11:49:13;;;;;;;10.85;3.13;;;6.10;64.80;;;;;;5066172;28;20223;-62
2023/03/11 11:51:51;;;;;;;7.68;2.97;;;6.00;64.80;;;;;;5064161;28;20649;-62
2023/03/11 11:54:31;;;;;;;6.57;2.95;;;6.10;65.00;;;;;;5068329;28;20592;-62
2023/03/11 11:57:13;;;;;;;5.28;2.50;;;6.10;65.20;;;;;;5066786;28;20205;-62
2023/03/11 11:59:43;;;;;;;6.38;2.60;;;6.10;64.70;;;;;;5067372;28;20239;-61
2023/03/11 12:02:30;;;;;;;7.28;2.70;;;6.10;64.80;;;;;;5063530;28;20236;-60
2023/03/11 12:05:03;;;;;;;6.88;3.58;;;6.20;64.80;;;;;;5065207;28;20249;-61
2023/03/11 12:07:51;;;;;;;6.15;3.08;;;6.20;64.70;;;;;;5066547;28;20586;-64
2023/03/11 12:10:27;;;;;;;8.10;3.00;;;6.20;64.80;;;;;;5073793;28;20574;-61
2023/03/11 12:13:29;;;;;;;6.55;3.42;;;6.30;64.80;;;;;;5070693;28;20226;-61
2023/03/11 12:16:06;;;;;;;6.10;2.90;;;6.40;64.90;;;;;;5067766;28;20225;-62
2023/03/11 12:18:40;;;;;;;8.57;2.85;;;6.40;64.80;;;;;;5069574;28;20695;-62
2023/03/11 12:21:30;;;;;;;7.82;2.75;;;6.50;64.70;;;;;;5068677;28;20208;-61
2023/03/11 12:24:31;;;;;;;5.28;2.70;;;6.50;64.40;;;;;;5070382;28;20204;-61
2023/03/11 12:27:12;;;;;;;6.55;2.80;;;6.50;64.60;;;;;;5065688;28;20209;-61
2023/03/11 12:29:49;;;;;;;11.35;3.08;;;6.50;64.40;;;;;;5068390;28;20210;-62
2023/03/11 12:32:40;;;;;;;6.45;3.10;;;6.50;64.30;;;;;;5066947;28;20328;-61
2023/03/11 12:35:22;;;;;;;6.28;2.88;;;6.60;64.20;;;;;;5064557;28;20211;-62
2023/03/11 12:38:02;;;;;;;9.88;3.53;;;6.60;64.20;;;;;;5066832;28;20214;-62
2023/03/11 12:41:01;;;;;;;7.85;2.60;;;6.60;64.20;;;;;;5067434;28;20229;-62
2023/03/11 12:43:59;;;;;;;8.77;2.67;;;6.70;64.00;;;;;;5067058;28;20251;-62
2023/03/11 12:47:13;;;;;;;6.97;3.20;;;6.70;64.10;;;;;;5070591;28;20646;-61
2023/03/11 12:49:53;;;;;;;7.47;2.80;;;6.80;63.90;;;;;;5054411;28;20206;-62
2023/03/11 12:52:29;;;;;;;9.35;2.67;;;6.80;63.90;;;;;;5065343;28;20220;-62
2023/03/11 12:55:36;;;;;;;5.80;2.20;;;6.80;63.90;;;;;;5069880;28;20217;-61
2023/03/11 12:58:57;;;;;;;6.20;2.65;;;6.90;63.60;;;;;;5068687;28;20664;-62
2023/03/11 13:01:51;;;;;;;10.18;2.40;;;6.80;63.50;;;;;;5069319;28;20240;-62
2023/03/11 13:04:40;;;;;;;9.43;2.45;;;6.70;62.30;;;;;;5066161;28;20657;-62
2023/03/11 13:07:57;;;;;;;5.47;2.55;;;6.70;63.20;;;;;;5068013;28;20197;-62
2023/03/11 13:10:46;;;;;;;7.95;2.80;;;6.80;63.20;;;;;;5033027;28;20225;-62
2023/03/11 13:13:43;;;;;;;4.38;2.20;;;6.80;63.00;;;;;;5068792;28;20216;-62
2023/03/11 13:16:44;;;;;;;6.72;2.75;;;6.80;62.70;;;;;;5069231;28;20202;-62
2023/03/11 13:19:50;;;;;;;13.07;2.50;;;6.80;62.30;;;;;;5067053;28;20268;-62
2023/03/11 13:22:41;;;;;;;5.28;2.45;;;6.80;62.40;;;;;;5067843;28;20228;-62
2023/03/11 13:25:46;;;;;;;8.35;2.78;;;6.90;62.90;;;;;;5048997;28;20216;-62
2023/03/11 13:28:45;;;;;;;9.63;2.45;;;6.90;62.70;;;;;;5070593;28;20215;-62
2023/03/11 13:31:43;;;;;;;4.85;2.42;;;6.90;61.60;;;;;;5067516;28;20226;-62
2023/03/11 13:34:16;;;;;;;8.07;2.65;;;7.00;62.40;;;;;;5062738;28;20218;-62
2023/03/11 13:37:03;;;;;;;5.75;2.55;;;7.00;61.80;;;;;;5065806;28;20201;-61
2023/03/11 13:39:56;;;;;;;7.15;2.40;;;7.00;62.10;;;;;;5066462;28;20713;-62
2023/03/11 13:42:40;;;;;;;7.65;2.90;;;7.10;62.20;;;;;;5066248;28;20217;-62
2023/03/11 13:45:25;;;;;;;7.10;3.38;;;7.00;61.90;;;;;;5068920;28;20328;-61
2023/03/11 13:48:00;;;;;;;8.93;3.42;;;7.00;61.70;;;;;;5070621;28;20665;-61
2023/03/11 13:50:36;;;;;;;9.80;2.70;;;6.90;61.90;;;;;;5065749;28;20210;-61
2023/03/11 13:53:13;;;;;;;17.88;3.40;;;7.00;62.20;;;;;;5066566;28;20229;-61
2023/03/11 13:55:54;;;;;;;8.50;3.40;;;7.10;62.40;;;;;;5069456;28;20201;-62
2023/03/11 13:58:28;;;;;;;6.57;2.97;;;7.00;62.20;;;;;;5067794;28;20650;-62
2023/03/11 14:00:58;;;;;;;7.07;3.20;;;7.00;62.00;;;;;;5067343;28;20241;-61